Time;durP1;ratioP1;P1;durP2;ratioP2;P2;SDS_P1;SDS_P2;PMS_P1;PMS_P2;Temp;Humidity;BMP_temperature;BMP_pressure;BME280_temperature;BME280_humidity;BME280_pressure;Samples;Min_cycle;Max_cycle;Signal;HPM_P1;HPM_P2
2023/03/26 00:01:04;;;;;;;4.40;1.60;;;15.90;58.40;;;;;;5054589;28;20630;-65
2023/03/26 00:03:31;;;;;;;2.65;1.38;;;15.90;58.40;;;;;;5054285;28;20190;-65
2023/03/26 00:06:12;;;;;;;3.22;1.50;;;15.90;58.40;;;;;;5055057;28;20258;-65
2023/03/26 00:08:38;;;;;;;3.28;1.80;;;15.90;58.40;;;;;;5054658;28;20484;-65
2023/03/26 00:11:05;;;;;;;2.58;1.50;;;15.90;58.40;;;;;;5054257;28;20189;-66
2023/03/26 00:13:31;;;;;;;3.33;1.48;;;15.90;59.00;;;;;;5054768;28;20244;-66
2023/03/26 00:15:56;;;;;;;2.90;1.70;;;15.90;58.40;;;;;;5054561;28;20179;-66
2023/03/26 00:18:28;;;;;;;2.70;1.50;;;15.90;58.40;;;;;;5054254;28;20522;-65
2023/03/26 00:20:57;;;;;;;3.88;1.48;;;15.80;58.40;;;;;;5054228;28;20318;-65
2023/03/26 00:23:23;;;;;;;4.70;1.27;;;15.80;58.40;;;;;;5054569;28;20183;-65
2023/03/26 00:25:50;;;;;;;4.00;1.77;;;15.90;58.50;;;;;;5053894;28;20531;-65
2023/03/26 00:28:20;;;;;;;2.42;1.52;;;15.80;58.40;;;;;;5054550;28;20262;-65
2023/03/26 00:30:49;;;;;;;4.15;1.80;;;15.80;58.40;;;;;;5053856;28;20209;-64
2023/03/26 00:33:18;;;;;;;2.90;1.88;;;15.80;58.40;;;;;;5054300;28;20211;-66
2023/03/26 00:35:45;;;;;;;2.33;1.30;;;15.90;58.50;;;;;;5054067;28;20515;-66
2023/03/26 00:38:13;;;;;;;3.25;1.25;;;15.80;58.40;;;;;;5053795;28;20175;-66
2023/03/26 00:40:43;;;;;;;3.38;1.63;;;15.80;58.40;;;;;;5054202;28;20184;-66
2023/03/26 00:43:17;;;;;;;1.80;1.27;;;15.80;58.40;;;;;;5054435;28;20190;-65
2023/03/26 00:45:51;;;;;;;5.25;1.80;;;15.80;58.40;;;;;;5053403;28;20474;-64
2023/03/26 00:48:16;;;;;;;2.88;1.27;;;15.80;58.50;;;;;;5054316;28;20207;-64
2023/03/26 00:50:42;;;;;;;3.97;1.40;;;15.80;58.50;;;;;;5054079;28;20229;-64
2023/03/26 00:53:12;;;;;;;4.65;1.88;;;15.80;58.60;;;;;;5052105;28;20215;-65
2023/03/26 00:55:42;;;;;;;2.80;1.55;;;15.80;58.60;;;;;;5054169;28;20568;-65
2023/03/26 00:58:11;;;;;;;3.80;1.45;;;15.80;58.60;;;;;;5054069;28;20183;-67
2023/03/26 01:00:43;;;;;;;4.00;1.40;;;15.70;58.50;;;;;;5053453;28;20175;-65
2023/03/26 01:03:11;;;;;;;3.05;1.77;;;15.80;58.60;;;;;;5054382;28;20179;-65
2023/03/26 01:05:44;;;;;;;3.97;1.75;;;15.80;58.60;;;;;;5054258;28;20183;-65
2023/03/26 01:08:32;;;;;;;3.53;1.40;;;15.80;58.60;;;;;;5053316;28;20622;-65
2023/03/26 01:11:05;;;;;;;3.00;1.77;;;15.80;58.60;;;;;;5052432;28;20638;-66
2023/03/26 01:13:33;;;;;;;4.35;1.83;;;15.70;58.60;;;;;;5053315;28;20211;-66
2023/03/26 01:16:00;;;;;;;4.65;1.73;;;15.70;58.60;;;;;;5053642;28;20178;-67
2023/03/26 01:18:27;;;;;;;4.50;1.98;;;15.70;58.50;;;;;;5052735;28;20183;-66
2023/03/26 01:21:03;;;;;;;2.38;1.45;;;15.70;58.60;;;;;;5051240;28;20726;-67
2023/03/26 01:23:36;;;;;;;3.10;1.70;;;15.70;58.60;;;;;;5052612;28;20182;-66
2023/03/26 01:26:31;;;;;;;2.40;1.38;;;15.70;58.60;;;;;;5052407;28;20183;-67
2023/03/26 01:28:58;;;;;;;3.75;1.50;;;15.70;58.70;;;;;;5044054;28;20207;-66
2023/03/26 01:31:36;;;;;;;3.47;1.70;;;15.70;58.60;;;;;;5052250;28;20269;-65
2023/03/26 01:34:11;;;;;;;4.75;2.00;;;15.70;58.60;;;;;;5051116;28;20791;-67
2023/03/26 01:36:45;;;;;;;3.28;1.55;;;15.70;58.60;;;;;;5053312;28;20171;-66
2023/03/26 01:39:17;;;;;;;5.47;2.03;;;15.70;58.60;;;;;;5052150;28;20178;-67
2023/03/26 01:41:45;;;;;;;4.78;2.03;;;15.70;58.70;;;;;;5051274;28;20183;-66
2023/03/26 01:44:21;;;;;;;3.90;1.55;;;15.70;58.60;;;;;;5051553;28;20179;-66
2023/03/26 01:46:46;;;;;;;3.08;1.60;;;15.70;58.60;;;;;;5051751;28;20246;-64
2023/03/26 01:49:12;;;;;;;3.42;1.55;;;15.70;58.60;;;;;;5051372;28;20269;-65
2023/03/26 01:51:38;;;;;;;3.78;1.77;;;15.70;58.60;;;;;;5053271;28;20179;-64
2023/03/26 01:54:06;;;;;;;3.78;1.67;;;15.70;58.60;;;;;;5052861;28;20278;-67
2023/03/26 01:56:46;;;;;;;3.58;1.83;;;15.70;58.70;;;;;;5050989;28;20582;-66
2023/03/26 01:59:41;;;;;;;3.10;1.98;;;15.70;58.70;;;;;;5052931;28;20179;-67
2023/03/26 02:02:17;;;;;;;4.05;1.67;;;15.70;58.70;;;;;;5051089;28;20175;-67
2023/03/26 02:04:56;;;;;;;5.13;1.92;;;15.60;58.70;;;;;;5051238;28;20212;-65
2023/03/26 02:08:00;;;;;;;2.88;1.40;;;15.70;58.70;;;;;;5051486;28;20182;-66
2023/03/26 02:10:27;;;;;;;4.45;1.80;;;15.70;58.70;;;;;;5040582;28;20731;-66
2023/03/26 02:12:52;;;;;;;5.25;1.95;;;15.70;58.70;;;;;;5050818;28;20236;-66
2023/03/26 02:15:18;;;;;;;4.72;1.83;;;15.60;58.60;;;;;;5051342;28;20190;-66
2023/03/26 02:17:44;;;;;;;6.57;2.40;;;15.70;58.70;;;;;;5051433;28;20635;-66
2023/03/26 02:20:10;;;;;;;4.35;1.80;;;15.60;58.60;;;;;;5052263;28;20689;-66
2023/03/26 02:22:39;;;;;;;4.35;1.65;;;15.70;58.80;;;;;;5052248;28;20171;-65
2023/03/26 02:25:07;;;;;;;5.53;2.22;;;15.70;58.80;;;;;;5051279;28;20274;-65
2023/03/26 02:27:33;;;;;;;6.55;1.80;;;15.70;58.80;;;;;;5052207;28;20704;-65
2023/03/26 02:29:59;;;;;;;3.78;2.05;;;15.60;58.70;;;;;;5051949;28;20179;-67
2023/03/26 02:32:25;;;;;;;4.75;2.15;;;15.70;58.80;;;;;;5051259;28;20229;-66
2023/03/26 02:34:54;;;;;;;3.03;1.50;;;15.70;58.80;;;;;;5052099;28;20179;-67
2023/03/26 02:37:19;;;;;;;4.07;1.88;;;15.60;58.80;;;;;;5051305;28;20628;-67
2023/03/26 02:39:45;;;;;;;3.88;2.20;;;15.60;58.80;;;;;;5051994;28;20183;-67
2023/03/26 02:42:10;;;;;;;5.50;2.10;;;15.60;58.80;;;;;;5052058;28;20225;-66
2023/03/26 02:44:39;;;;;;;5.68;2.00;;;15.60;58.80;;;;;;5051080;28;20183;-65
2023/03/26 02:47:04;;;;;;;4.88;2.17;;;15.60;58.80;;;;;;5051776;28;20256;-66
2023/03/26 02:49:30;;;;;;;4.32;1.70;;;15.60;58.80;;;;;;5052221;28;20175;-65
2023/03/26 02:51:56;;;;;;;5.13;2.08;;;15.60;58.80;;;;;;5050958;28;20630;-66
2023/03/26 02:54:22;;;;;;;3.40;1.83;;;15.60;58.80;;;;;;5051850;28;20692;-66
2023/03/26 02:56:47;;;;;;;5.68;2.05;;;15.60;58.80;;;;;;5051495;28;20186;-67
2023/03/26 02:59:13;;;;;;;3.38;1.85;;;15.60;58.80;;;;;;5051258;28;20659;-67
2023/03/26 03:01:41;;;;;;;4.78;1.90;;;15.60;58.80;;;;;;5051797;28;20178;-66
2023/03/26 03:04:08;;;;;;;3.55;1.70;;;15.60;58.80;;;;;;5051808;28;20171;-67
2023/03/26 03:06:34;;;;;;;5.82;2.17;;;15.60;58.80;;;;;;5051238;28;20185;-65
2023/03/26 03:09:01;;;;;;;5.40;2.10;;;15.60;58.80;;;;;;5051555;28;20167;-66
2023/03/26 03:11:27;;;;;;;4.20;1.83;;;15.60;58.80;;;;;;5051721;28;20185;-67
2023/03/26 03:13:52;;;;;;;5.35;2.25;;;15.60;58.90;;;;;;5050698;28;20215;-66
2023/03/26 03:16:18;;;;;;;5.05;2.00;;;15.60;58.90;;;;;;5051615;28;20209;-66
2023/03/26 03:18:46;;;;;;;7.78;2.67;;;15.50;58.80;;;;;;5051158;28;20557;-66
2023/03/26 03:21:11;;;;;;;3.33;1.88;;;15.60;58.90;;;;;;5050770;28;20231;-66
2023/03/26 03:23:37;;;;;;;6.45;2.28;;;15.60;58.90;;;;;;5051403;28;20687;-65
2023/03/26 03:26:03;;;;;;;5.30;2.03;;;15.60;58.90;;;;;;5051303;28;20229;-66
2023/03/26 03:28:29;;;;;;;5.07;2.08;;;15.50;58.90;;;;;;5050900;28;20175;-65
2023/03/26 03:30:56;;;;;;;5.43;2.75;;;15.60;58.90;;;;;;5051148;28;20175;-65
2023/03/26 03:33:22;;;;;;;3.85;1.90;;;15.60;58.90;;;;;;5051570;28;20226;-66
2023/03/26 03:35:48;;;;;;;4.82;2.20;;;15.60;59.00;;;;;;5050621;28;20172;-68
2023/03/26 03:38:18;;;;;;;4.32;1.88;;;15.60;59.00;;;;;;5051575;28;20179;-67
2023/03/26 03:40:43;;;;;;;4.45;1.98;;;15.60;59.00;;;;;;5050470;28;20175;-66
2023/03/26 03:43:09;;;;;;;6.88;2.25;;;15.50;59.00;;;;;;5051353;28;20232;-66
2023/03/26 03:45:35;;;;;;;4.25;1.98;;;15.50;59.00;;;;;;5051688;28;20648;-65
2023/03/26 03:48:00;;;;;;;4.20;1.85;;;15.50;59.00;;;;;;5050608;28;20642;-66
2023/03/26 03:50:26;;;;;;;8.20;2.45;;;15.50;59.00;;;;;;5051376;28;20187;-65
2023/03/26 03:52:52;;;;;;;5.07;2.17;;;15.50;59.00;;;;;;5050964;28;20222;-66
2023/03/26 03:55:17;;;;;;;4.70;2.05;;;15.50;59.00;;;;;;5050692;28;20266;-66
2023/03/26 03:57:43;;;;;;;3.47;2.33;;;15.50;59.10;;;;;;5050710;28;20652;-67
2023/03/26 04:00:10;;;;;;;4.80;2.60;;;15.50;59.10;;;;;;5051506;28;20265;-67
2023/03/26 04:02:36;;;;;;;5.25;2.30;;;15.50;59.00;;;;;;5050704;28;20171;-66
2023/03/26 04:05:02;;;;;;;5.63;2.30;;;15.50;59.70;;;;;;5051458;28;20242;-67
2023/03/26 04:07:30;;;;;;;3.97;2.20;;;15.50;59.10;;;;;;5053112;28;20195;-66
2023/03/26 04:09:56;;;;;;;3.85;1.80;;;15.50;59.10;;;;;;5054037;28;20646;-67
2023/03/26 04:12:21;;;;;;;5.32;1.75;;;15.50;59.20;;;;;;5054877;28;20186;-66
2023/03/26 04:14:47;;;;;;;9.90;2.20;;;15.50;59.20;;;;;;5054730;28;20183;-65
2023/03/26 04:17:14;;;;;;;4.65;2.25;;;15.50;59.20;;;;;;5054540;28;20255;-67
2023/03/26 04:19:39;;;;;;;3.38;1.83;;;15.50;59.20;;;;;;5054951;28;20314;-67
2023/03/26 04:22:05;;;;;;;4.80;2.17;;;15.50;59.20;;;;;;5054625;28;20260;-67
2023/03/26 04:24:37;;;;;;;5.32;2.35;;;15.50;59.20;;;;;;5054183;28;20174;-65
2023/03/26 04:27:05;;;;;;;5.35;2.33;;;15.40;59.20;;;;;;5054452;28;20290;-65
2023/03/26 04:29:31;;;;;;;4.32;2.10;;;15.50;59.20;;;;;;5037228;28;20176;-65
2023/03/26 04:31:57;;;;;;;4.07;2.13;;;15.50;59.30;;;;;;5036106;28;20182;-66
2023/03/26 04:34:23;;;;;;;4.97;2.47;;;15.40;59.20;;;;;;5054587;28;20219;-66
2023/03/26 04:36:53;;;;;;;4.78;2.47;;;15.40;59.20;;;;;;5052868;28;20608;-67
2023/03/26 04:39:20;;;;;;;4.82;2.05;;;15.50;59.30;;;;;;5054491;28;20226;-66
2023/03/26 04:41:46;;;;;;;3.58;2.05;;;15.40;59.30;;;;;;5054135;28;20179;-66
2023/03/26 04:44:15;;;;;;;4.55;2.10;;;15.40;59.20;;;;;;5053892;28;20245;-66
2023/03/26 04:46:42;;;;;;;4.78;2.20;;;15.40;59.20;;;;;;5054562;28;20255;-64
2023/03/26 04:49:08;;;;;;;4.38;1.88;;;15.50;59.30;;;;;;5054367;28;20606;-65
2023/03/26 04:51:37;;;;;;;7.35;2.83;;;15.50;59.30;;;;;;5053358;28;20266;-65
2023/03/26 04:54:03;;;;;;;5.00;2.15;;;15.50;59.30;;;;;;5053935;28;20210;-67
2023/03/26 04:56:57;;;;;;;3.20;1.80;;;15.40;59.30;;;;;;5053138;28;20217;-66
2023/03/26 04:59:33;;;;;;;5.13;2.38;;;15.40;59.30;;;;;;5052224;28;20182;-67
2023/03/26 05:02:00;;;;;;;4.85;2.10;;;15.40;59.30;;;;;;5053858;28;20201;-67
2023/03/26 05:04:25;;;;;;;5.72;2.30;;;15.40;59.40;;;;;;5053961;28;20277;-65
2023/03/26 05:06:56;;;;;;;4.38;1.95;;;15.40;59.20;;;;;;5052903;28;20172;-65
2023/03/26 05:09:22;;;;;;;4.85;2.22;;;15.40;59.20;;;;;;5054027;28;20215;-66
2023/03/26 05:11:49;;;;;;;3.90;1.92;;;15.50;59.10;;;;;;5053516;28;20195;-66
2023/03/26 05:14:15;;;;;;;5.55;2.15;;;15.60;59.00;;;;;;5053177;28;20210;-66
2023/03/26 05:16:40;;;;;;;4.40;2.03;;;15.50;58.90;;;;;;5053941;28;20206;-66
2023/03/26 05:19:07;;;;;;;5.45;2.15;;;15.60;58.90;;;;;;5033736;28;20178;-66
2023/03/26 05:21:33;;;;;;;5.93;2.08;;;15.60;58.80;;;;;;5053904;28;20286;-66
2023/03/26 05:23:58;;;;;;;4.78;2.25;;;15.60;58.70;;;;;;5053487;28;20705;-66
2023/03/26 05:26:24;;;;;;;5.72;2.00;;;15.60;58.70;;;;;;5053088;28;20812;-65
2023/03/26 05:28:50;;;;;;;4.25;2.38;;;15.60;58.80;;;;;;5053288;28;20550;-65
2023/03/26 05:31:17;;;;;;;3.30;2.10;;;15.60;58.80;;;;;;5053467;28;20174;-66
2023/03/26 05:33:43;;;;;;;6.05;2.20;;;15.50;58.80;;;;;;5052339;28;20211;-66
2023/03/26 05:36:14;;;;;;;4.78;2.35;;;15.50;58.90;;;;;;5053379;28;20320;-67
2023/03/26 05:38:39;;;;;;;4.50;1.85;;;15.40;58.80;;;;;;5053397;28;20274;-66
2023/03/26 05:41:06;;;;;;;4.05;1.73;;;15.50;58.90;;;;;;5052415;28;20312;-65
2023/03/26 05:43:32;;;;;;;6.05;2.35;;;15.50;59.00;;;;;;5053405;28;20225;-65
2023/03/26 05:45:57;;;;;;;4.88;2.30;;;15.50;58.90;;;;;;5052928;28;20171;-65
2023/03/26 05:48:24;;;;;;;3.10;1.88;;;15.50;59.00;;;;;;5052802;28;20638;-65
2023/03/26 05:50:50;;;;;;;6.85;2.65;;;15.50;59.00;;;;;;5053148;28;20233;-65
2023/03/26 05:53:17;;;;;;;6.93;2.80;;;15.50;59.00;;;;;;5052788;28;20704;-65
2023/03/26 05:55:44;;;;;;;5.50;2.25;;;15.50;59.00;;;;;;5052098;28;20309;-65
2023/03/26 05:58:10;;;;;;;4.93;2.10;;;15.50;59.00;;;;;;5053001;28;20262;-66
2023/03/26 06:00:37;;;;;;;4.45;2.00;;;15.50;59.00;;;;;;5052808;28;20217;-65
2023/03/26 06:03:04;;;;;;;3.30;1.75;;;15.50;59.10;;;;;;5052115;28;20183;-67
2023/03/26 06:05:36;;;;;;;4.63;2.20;;;15.50;59.10;;;;;;5052810;28;20218;-65
2023/03/26 06:08:02;;;;;;;4.95;2.08;;;15.50;59.30;;;;;;5051270;28;20375;-66
2023/03/26 06:10:27;;;;;;;4.65;1.95;;;15.60;59.30;;;;;;5051909;28;20178;-66
2023/03/26 06:12:53;;;;;;;3.20;1.95;;;15.70;59.20;;;;;;5052151;28;20206;-65
2023/03/26 06:15:18;;;;;;;4.55;2.13;;;15.80;59.00;;;;;;5051926;28;20179;-66
2023/03/26 06:17:44;;;;;;;2.97;1.90;;;16.00;58.90;;;;;;5052079;28;20229;-65
2023/03/26 06:20:13;;;;;;;5.28;2.08;;;16.10;58.70;;;;;;5052449;28;20219;-66
2023/03/26 06:22:39;;;;;;;4.22;1.90;;;16.30;58.40;;;;;;5052078;28;20183;-65
2023/03/26 06:25:05;;;;;;;4.25;2.05;;;16.50;58.10;;;;;;5052245;28;20175;-66
2023/03/26 06:27:30;;;;;;;4.20;2.00;;;16.70;57.80;;;;;;5050938;28;20178;-64
2023/03/26 06:29:56;;;;;;;3.33;1.50;;;16.80;57.50;;;;;;5050935;28;20179;-65
2023/03/26 06:32:21;;;;;;;3.55;1.65;;;17.00;57.20;;;;;;5052250;28;20179;-65
2023/03/26 06:34:47;;;;;;;4.63;1.67;;;17.20;57.00;;;;;;5052022;28;20215;-66
2023/03/26 06:37:12;;;;;;;3.03;1.70;;;17.30;56.90;;;;;;5051661;28;20668;-66
2023/03/26 06:39:38;;;;;;;4.70;1.80;;;17.40;56.60;;;;;;5052261;28;20676;-65
2023/03/26 06:42:04;;;;;;;3.22;1.80;;;17.50;56.40;;;;;;5051846;28;20182;-65
2023/03/26 06:44:33;;;;;;;3.33;1.73;;;17.60;56.20;;;;;;5051319;28;20519;-64
2023/03/26 06:46:58;;;;;;;2.97;1.70;;;17.60;56.10;;;;;;5051817;28;20258;-63
2023/03/26 06:49:24;;;;;;;3.03;1.77;;;17.60;56.10;;;;;;5051907;28;20271;-64
2023/03/26 06:51:49;;;;;;;4.70;2.15;;;17.60;56.10;;;;;;5051134;28;20202;-64
2023/03/26 06:54:15;;;;;;;3.03;1.70;;;17.60;56.20;;;;;;5051768;28;20211;-65
2023/03/26 06:56:41;;;;;;;3.78;1.83;;;17.60;56.30;;;;;;5051910;28;20274;-65
2023/03/26 06:59:06;;;;;;;2.97;1.40;;;17.60;56.20;;;;;;5050683;28;20212;-66
2023/03/26 07:01:32;;;;;;;4.50;1.85;;;17.60;56.20;;;;;;5051955;28;20217;-65
2023/03/26 07:04:00;;;;;;;2.85;1.52;;;17.60;56.20;;;;;;5051308;28;20171;-66
2023/03/26 07:06:25;;;;;;;3.30;1.48;;;17.60;56.20;;;;;;5050927;28;20179;-64
2023/03/26 07:08:51;;;;;;;3.00;1.77;;;17.70;56.80;;;;;;5051515;28;20175;-65
2023/03/26 07:11:19;;;;;;;2.88;1.73;;;17.70;56.20;;;;;;5051679;28;20182;-65
2023/03/26 07:13:46;;;;;;;4.45;2.10;;;17.70;56.20;;;;;;5050458;28;20241;-65
2023/03/26 07:16:12;;;;;;;2.67;1.50;;;17.70;56.20;;;;;;5051717;28;20228;-66
2023/03/26 07:18:38;;;;;;;4.30;1.40;;;17.60;56.30;;;;;;5051143;28;20175;-65
2023/03/26 07:21:04;;;;;;;5.63;1.88;;;17.60;56.30;;;;;;5051238;28;20754;-66
2023/03/26 07:23:30;;;;;;;2.90;1.60;;;17.50;56.50;;;;;;5051670;28;20180;-65
2023/03/26 07:25:56;;;;;;;5.13;2.03;;;17.40;56.70;;;;;;5050931;28;20171;-65
2023/03/26 07:28:35;;;;;;;3.10;1.70;;;17.50;56.60;;;;;;5051688;28;20349;-64
2023/03/26 07:31:33;;;;;;;4.32;1.98;;;17.40;56.60;;;;;;5049945;28;20536;-65
2023/03/26 07:34:41;;;;;;;3.80;1.98;;;17.50;56.60;;;;;;5049481;28;20566;-66
2023/03/26 07:37:31;;;;;;;2.72;1.65;;;17.50;56.60;;;;;;5043872;28;20183;-67
2023/03/26 07:40:32;;;;;;;3.42;1.90;;;17.50;56.60;;;;;;5034279;28;20186;-67
2023/03/26 07:43:08;;;;;;;3.67;1.80;;;17.50;56.60;;;;;;5052826;28;20170;-66
2023/03/26 07:45:43;;;;;;;3.40;1.50;;;17.50;57.00;;;;;;5054337;28;20175;-64
2023/03/26 07:48:26;;;;;;;3.65;1.58;;;17.40;57.00;;;;;;5054917;28;20236;-66
2023/03/26 07:50:52;;;;;;;4.13;2.13;;;17.30;57.30;;;;;;5055262;28;20774;-65
2023/03/26 07:53:18;;;;;;;6.35;2.15;;;17.20;57.60;;;;;;5055167;28;20221;-66
2023/03/26 07:56:05;;;;;;;3.38;1.83;;;17.10;57.60;;;;;;5054259;28;20559;-67
2023/03/26 07:59:01;;;;;;;3.53;2.00;;;17.10;57.90;;;;;;5054038;28;20182;-65
2023/03/26 08:01:48;;;;;;;5.47;1.63;;;17.10;58.00;;;;;;5054401;28;20206;-65
2023/03/26 08:04:49;;;;;;;7.22;1.90;;;17.20;58.10;;;;;;5055238;28;20179;-63
2023/03/26 08:07:16;;;;;;;5.47;1.63;;;17.20;58.30;;;;;;5053496;28;20266;-63
2023/03/26 08:09:45;;;;;;;4.18;1.90;;;17.10;58.20;;;;;;5062378;28;20183;-63
2023/03/26 08:12:17;;;;;;;4.97;1.85;;;17.10;58.20;;;;;;5067651;28;20192;-63
2023/03/26 08:14:57;;;;;;;5.18;1.92;;;17.10;58.40;;;;;;5072912;28;20670;-63
2023/03/26 08:17:56;;;;;;;3.78;1.63;;;17.00;58.40;;;;;;5054982;28;20202;-63
2023/03/26 08:20:33;;;;;;;4.50;1.95;;;17.00;58.50;;;;;;5035083;28;20282;-63
2023/03/26 08:23:04;;;;;;;5.43;2.25;;;16.90;58.80;;;;;;5053023;28;20171;-63
2023/03/26 08:25:51;;;;;;;3.92;1.88;;;16.90;58.80;;;;;;5071218;28;20175;-63
2023/03/26 08:28:17;;;;;;;5.20;2.10;;;16.90;58.80;;;;;;5074092;28;20190;-65
2023/03/26 08:30:43;;;;;;;6.47;2.17;;;16.80;58.80;;;;;;5074089;28;20270;-64
2023/03/26 08:33:18;;;;;;;3.35;1.77;;;16.80;58.90;;;;;;5074830;28;20727;-64
2023/03/26 08:35:44;;;;;;;4.50;2.22;;;16.70;58.90;;;;;;5073425;28;20198;-64
2023/03/26 08:38:14;;;;;;;4.53;1.88;;;16.70;59.00;;;;;;5074171;28;20230;-64
2023/03/26 08:41:07;;;;;;;5.50;2.05;;;16.60;59.20;;;;;;5072876;28;20171;-63
2023/03/26 08:43:35;;;;;;;3.83;1.65;;;16.60;59.20;;;;;;5053347;28;20175;-63
2023/03/26 08:46:08;;;;;;;3.33;1.83;;;16.60;59.20;;;;;;5054174;28;20537;-63
2023/03/26 08:49:01;;;;;;;5.25;1.67;;;16.60;59.30;;;;;;5053497;28;20244;-62
2023/03/26 08:51:36;;;;;;;5.50;2.17;;;16.60;59.30;;;;;;5052558;28;20232;-62
2023/03/26 08:54:24;;;;;;;5.47;2.08;;;16.60;59.20;;;;;;5053917;28;20619;-63
2023/03/26 08:57:01;;;;;;;4.47;2.03;;;16.60;59.20;;;;;;5052717;28;20199;-63
2023/03/26 08:59:35;;;;;;;3.65;1.90;;;16.60;59.20;;;;;;5052386;28;20213;-64
2023/03/26 09:02:10;;;;;;;3.72;2.03;;;16.60;59.30;;;;;;5053901;28;20178;-65
2023/03/26 09:05:00;;;;;;;3.95;2.17;;;16.60;59.20;;;;;;5053473;28;20174;-63
2023/03/26 09:07:25;;;;;;;3.92;2.35;;;16.60;59.30;;;;;;5054523;28;20221;-63
2023/03/26 09:10:14;;;;;;;5.28;2.40;;;16.50;59.20;;;;;;5054024;28;20179;-62
2023/03/26 09:13:06;;;;;;;4.85;2.05;;;16.50;59.30;;;;;;5052169;28;20194;-63
2023/03/26 09:16:10;;;;;;;4.15;1.90;;;16.50;59.30;;;;;;5061473;28;20632;-63
2023/03/26 09:19:07;;;;;;;6.80;2.15;;;16.50;59.40;;;;;;5061661;28;20205;-63
2023/03/26 09:21:41;;;;;;;4.85;2.20;;;16.40;59.40;;;;;;5052542;28;20556;-62
2023/03/26 09:24:24;;;;;;;4.05;1.90;;;16.40;59.50;;;;;;5033881;28;20175;-63
2023/03/26 09:26:59;;;;;;;4.60;2.28;;;16.40;59.40;;;;;;5039314;28;20203;-63
2023/03/26 09:29:50;;;;;;;5.22;2.38;;;16.40;59.50;;;;;;5052654;28;20580;-64
2023/03/26 09:32:39;;;;;;;5.80;2.55;;;16.40;59.40;;;;;;5051836;28;20596;-64
2023/03/26 09:35:24;;;;;;;5.00;1.95;;;16.40;59.50;;;;;;5037301;28;20274;-63
2023/03/26 09:37:59;;;;;;;5.00;1.83;;;16.40;59.50;;;;;;5052019;28;20179;-64
2023/03/26 09:40:35;;;;;;;5.25;2.30;;;16.40;59.50;;;;;;5052853;28;20167;-64
2023/03/26 09:43:25;;;;;;;4.65;2.40;;;16.40;59.60;;;;;;5053424;28;20175;-64
2023/03/26 09:45:55;;;;;;;6.82;2.53;;;16.40;59.60;;;;;;5052245;28;20178;-63
2023/03/26 09:49:16;;;;;;;5.60;2.40;;;16.30;59.70;;;;;;5052802;28;20190;-63
2023/03/26 09:51:55;;;;;;;3.75;2.28;;;16.30;59.60;;;;;;5019542;28;20207;-62
2023/03/26 09:54:34;;;;;;;6.57;2.38;;;16.30;59.60;;;;;;5047038;28;20223;-64
2023/03/26 09:57:17;;;;;;;6.20;2.50;;;16.30;59.60;;;;;;5052127;28;20228;-65
2023/03/26 10:00:09;;;;;;;5.03;2.10;;;16.30;59.70;;;;;;5051917;28;20225;-65
2023/03/26 10:02:59;;;;;;;4.65;1.92;;;16.30;59.70;;;;;;5051183;28;20199;-65
2023/03/26 10:05:46;;;;;;;4.47;2.10;;;16.30;59.90;;;;;;5052716;28;20170;-65
2023/03/26 10:08:52;;;;;;;4.40;2.05;;;16.30;59.70;;;;;;5052552;28;20353;-65
2023/03/26 10:11:51;;;;;;;3.72;2.05;;;16.30;59.60;;;;;;5053262;28;20576;-66
2023/03/26 10:14:17;;;;;;;5.30;2.55;;;16.30;59.60;;;;;;5051935;28;20272;-66
2023/03/26 10:16:57;;;;;;;7.53;2.83;;;16.30;59.60;;;;;;5069329;28;20182;-66
2023/03/26 10:19:41;;;;;;;3.78;2.10;;;16.30;59.40;;;;;;5071850;28;20304;-67
2023/03/26 10:22:10;;;;;;;5.30;2.25;;;16.40;59.30;;;;;;5072357;28;20167;-66
2023/03/26 10:24:53;;;;;;;3.42;2.10;;;16.40;59.20;;;;;;5072971;28;20206;-66
2023/03/26 10:27:46;;;;;;;5.05;2.42;;;16.40;59.30;;;;;;5059059;28;20642;-65
2023/03/26 10:30:18;;;;;;;2.65;1.90;;;16.50;59.20;;;;;;5052437;28;20191;-65
2023/03/26 10:32:53;;;;;;;5.22;2.25;;;16.50;59.20;;;;;;5051405;28;20166;-66
2023/03/26 10:35:40;;;;;;;6.68;2.72;;;16.50;59.10;;;;;;5051673;28;20175;-67
2023/03/26 10:38:21;;;;;;;5.45;2.17;;;16.50;59.10;;;;;;5051662;28;20171;-67
2023/03/26 10:41:09;;;;;;;4.13;2.83;;;16.50;59.20;;;;;;5052344;28;20183;-66
2023/03/26 10:43:53;;;;;;;5.72;2.58;;;16.40;59.20;;;;;;5050980;28;20178;-65
2023/03/26 10:46:44;;;;;;;4.70;2.25;;;16.40;59.20;;;;;;5035370;28;20182;-65
2023/03/26 10:49:40;;;;;;;7.43;2.80;;;16.40;59.30;;;;;;5052794;28;20178;-65
2023/03/26 10:52:07;;;;;;;5.05;2.20;;;16.40;59.30;;;;;;5052364;28;20194;-66
2023/03/26 10:54:38;;;;;;;4.47;1.90;;;16.40;59.30;;;;;;5051155;28;20218;-66
2023/03/26 10:57:37;;;;;;;3.83;2.10;;;16.40;59.30;;;;;;5051615;28;20199;-66
2023/03/26 11:00:24;;;;;;;4.40;2.35;;;16.40;59.40;;;;;;5050907;28;20183;-67
2023/03/26 11:03:30;;;;;;;3.55;2.10;;;16.40;59.40;;;;;;5051971;28;20637;-66
2023/03/26 11:06:14;;;;;;;5.63;2.30;;;16.30;59.30;;;;;;5040661;28;20193;-65
2023/03/26 11:09:12;;;;;;;5.07;2.03;;;16.40;59.30;;;;;;5052424;28;20626;-64
2023/03/26 11:12:02;;;;;;;4.88;2.13;;;16.30;59.20;;;;;;5042946;28;20508;-65
2023/03/26 11:14:59;;;;;;;3.75;1.80;;;16.30;59.20;;;;;;5052269;28;20207;-66
2023/03/26 11:17:40;;;;;;;5.20;2.05;;;16.30;59.20;;;;;;5033115;28;20175;-66
2023/03/26 11:20:18;;;;;;;4.57;2.25;;;16.30;59.20;;;;;;5034369;28;20235;-67
2023/03/26 11:22:55;;;;;;;3.58;2.40;;;16.30;59.10;;;;;;5035175;28;20271;-66
2023/03/26 11:25:45;;;;;;;5.10;2.05;;;16.30;59.10;;;;;;5034510;28;20550;-66
2023/03/26 11:28:39;;;;;;;4.88;2.13;;;16.40;59.10;;;;;;5036805;28;20160;-65
2023/03/26 11:31:18;;;;;;;3.67;2.10;;;16.30;59.10;;;;;;5036321;28;20593;-66
2023/03/26 11:33:46;;;;;;;3.53;1.98;;;16.40;59.10;;;;;;5034046;28;20717;-66
2023/03/26 11:36:15;;;;;;;2.40;1.90;;;16.30;59.00;;;;;;5034858;28;20631;-66
2023/03/26 11:38:43;;;;;;;2.88;2.10;;;16.30;59.10;;;;;;5035159;28;20180;-66
2023/03/26 11:41:14;;;;;;;2.85;2.25;;;16.20;59.00;;;;;;5034413;28;20340;-66
2023/03/26 11:43:40;;;;;;;4.70;2.38;;;16.30;59.10;;;;;;5034844;28;20547;-65
2023/03/26 11:46:09;;;;;;;7.40;2.47;;;16.30;59.10;;;;;;5035019;28;20251;-66
2023/03/26 11:48:41;;;;;;;5.22;2.13;;;16.30;59.10;;;;;;5034435;28;20606;-65
2023/03/26 11:51:10;;;;;;;4.00;2.25;;;16.20;59.10;;;;;;5034696;28;20168;-65
2023/03/26 11:53:38;;;;;;;1.85;1.63;;;16.30;59.10;;;;;;5034105;28;20238;-66
2023/03/26 11:56:13;;;;;;;3.78;2.20;;;16.40;59.00;;;;;;5035627;28;20179;-67
2023/03/26 11:59:04;;;;;;;3.13;1.98;;;16.40;58.90;;;;;;5034815;28;20218;-66
2023/03/26 12:01:55;;;;;;;4.13;2.17;;;16.50;58.80;;;;;;5034198;28;20534;-66
2023/03/26 12:04:26;;;;;;;2.90;1.77;;;16.40;58.70;;;;;;5035754;28;20191;-65
2023/03/26 12:06:55;;;;;;;2.72;2.00;;;16.40;58.70;;;;;;5035540;28;20176;-64
2023/03/26 12:09:20;;;;;;;3.92;2.20;;;16.40;58.70;;;;;;5034892;28;20230;-65
2023/03/26 12:11:46;;;;;;;4.00;1.80;;;16.40;58.80;;;;;;5035231;28;20207;-65
2023/03/26 12:14:17;;;;;;;3.25;1.63;;;16.40;58.90;;;;;;5034850;28;20226;-67
2023/03/26 12:17:02;;;;;;;4.75;1.77;;;16.40;59.00;;;;;;5068768;28;20185;-66
2023/03/26 12:19:39;;;;;;;3.55;2.38;;;16.30;58.80;;;;;;5075471;28;20295;-66
2023/03/26 12:22:05;;;;;;;3.35;1.88;;;16.30;58.80;;;;;;5074387;28;20178;-66
2023/03/26 12:24:34;;;;;;;4.05;1.98;;;16.40;58.80;;;;;;5075288;28;20633;-65
2023/03/26 12:27:07;;;;;;;3.58;1.80;;;16.50;58.70;;;;;;5063997;28;20179;-65
2023/03/26 12:29:33;;;;;;;5.18;2.47;;;16.50;58.60;;;;;;5054202;28;20557;-66
2023/03/26 12:32:05;;;;;;;2.75;1.88;;;16.60;58.60;;;;;;5055030;28;20176;-66
2023/03/26 12:34:33;;;;;;;3.35;1.90;;;16.50;58.60;;;;;;5055060;28;20215;-67
2023/03/26 12:36:59;;;;;;;3.30;1.80;;;16.60;58.60;;;;;;5036799;28;20169;-66
2023/03/26 12:39:29;;;;;;;2.08;1.70;;;16.50;58.60;;;;;;5054131;28;20194;-66
2023/03/26 12:41:57;;;;;;;3.60;2.35;;;16.50;58.70;;;;;;5054849;28;20167;-66
2023/03/26 12:44:28;;;;;;;2.75;1.67;;;16.40;58.90;;;;;;5054552;28;20203;-65
2023/03/26 12:47:07;;;;;;;3.10;1.67;;;16.40;58.90;;;;;;5054662;28;20254;-65
2023/03/26 12:49:33;;;;;;;2.60;1.55;;;16.40;59.00;;;;;;5053063;28;20285;-65
2023/03/26 12:52:09;;;;;;;3.22;2.28;;;16.40;59.00;;;;;;5054700;28;20225;-65
2023/03/26 12:54:38;;;;;;;4.20;2.03;;;16.40;58.90;;;;;;5037213;28;20221;-66
2023/03/26 12:57:17;;;;;;;4.18;2.45;;;16.50;58.80;;;;;;5053562;28;20224;-66
2023/03/26 12:59:52;;;;;;;1.95;1.45;;;16.50;58.70;;;;;;5053373;28;20182;-66
2023/03/26 13:02:45;;;;;;;2.42;1.70;;;16.50;58.60;;;;;;5054867;28;20254;-66
2023/03/26 13:05:29;;;;;;;2.40;1.75;;;16.50;58.60;;;;;;5053790;28;20644;-65
2023/03/26 13:08:19;;;;;;;2.55;1.60;;;16.60;58.60;;;;;;5053985;28;20226;-65
2023/03/26 13:11:04;;;;;;;5.10;2.20;;;16.50;58.60;;;;;;5053474;28;20187;-65
2023/03/26 13:13:52;;;;;;;4.00;1.80;;;16.50;58.80;;;;;;5052920;28;20603;-66
2023/03/26 13:16:51;;;;;;;2.85;1.67;;;16.40;59.00;;;;;;5067928;28;20541;-66
2023/03/26 13:19:26;;;;;;;3.00;1.40;;;16.40;59.00;;;;;;5072200;28;20700;-66